createdAt,value
2018-12-17T00:02:14.767Z,98039.73
2018-12-17T00:04:47.625Z,98052.62
2018-12-17T00:07:20.640Z,98050.76
2018-12-17T00:09:51.505Z,98052.45
2018-12-17T00:12:22.342Z,98055.52
2018-12-17T00:14:56.968Z,98051.22
2018-12-17T00:17:28.353Z,98046.19
2018-12-17T00:19:59.252Z,98048.77
2018-12-17T00:22:30.170Z,98046.19
2018-12-17T00:25:01.029Z,98046.32
2018-12-17T00:27:32.553Z,98041.23
2018-12-17T00:30:04.023Z,98051.14
2018-12-17T00:32:35.480Z,98044.77
2018-12-17T00:35:07.755Z,98039.20
2018-12-17T00:37:38.798Z,98045.34
2018-12-17T00:40:12.462Z,98043.73
2018-12-17T00:42:43.895Z,98039.98
2018-12-17T00:45:15.286Z,98047.78
2018-12-17T00:47:46.198Z,98045.33
2018-12-17T00:50:17.070Z,98050.05
2018-12-17T00:52:47.973Z,98045.73
2018-12-17T00:55:18.892Z,98053.12
2018-12-17T00:57:49.870Z,98050.18
2018-12-17T01:00:22.324Z,98045.39
2018-12-17T01:02:53.274Z,98044.63
2018-12-17T01:05:24.728Z,98045.77
2018-12-17T01:07:55.650Z,98049.45
2018-12-17T01:10:26.622Z,98047.42
2018-12-17T01:12:57.587Z,98056.56
2018-12-17T01:15:28.685Z,98056.75
2018-12-17T01:17:59.615Z,98052.11
2018-12-17T01:20:30.774Z,98055.58
2018-12-17T01:23:01.702Z,98058.73
2018-12-17T01:25:32.581Z,98062.30
2018-12-17T01:28:03.453Z,98064.07
2018-12-17T01:30:34.658Z,98064.07
2018-12-17T01:33:05.530Z,98069.22
2018-12-17T01:35:36.386Z,98069.96
2018-12-17T01:38:07.322Z,98073.30
2018-12-17T01:40:38.497Z,98075.36
2018-12-17T01:43:09.412Z,98082.50
2018-12-17T01:45:41.195Z,98090.05
2018-12-17T01:48:12.030Z,98096.49
2018-12-17T01:50:42.958Z,98091.74
2018-12-17T01:53:13.869Z,98098.06
2018-12-17T01:55:44.718Z,98103.21
2018-12-17T01:58:15.638Z,98102.33
2018-12-17T02:00:46.701Z,98107.91
2018-12-17T02:03:17.616Z,98108.33
2018-12-17T02:05:48.597Z,98106.45
2018-12-17T02:08:19.439Z,98100.36
2018-12-17T02:10:50.963Z,98106.20
2018-12-17T02:13:21.870Z,98102.34
2018-12-17T02:15:53.801Z,98109.78
2018-12-17T02:18:24.691Z,98116.34
2018-12-17T02:20:55.523Z,98123.83
2018-12-17T02:23:26.464Z,98119.19
2018-12-17T02:25:57.393Z,98121.66
2018-12-17T02:28:28.254Z,98125.34
2018-12-17T02:30:59.169Z,98119.90
2018-12-17T02:33:30.110Z,98125.64
2018-12-17T02:36:01.042Z,98125.41
2018-12-17T02:38:31.899Z,98131.55
2018-12-17T02:41:02.801Z,98140.27
2018-12-17T02:43:33.971Z,98138.22
2018-12-17T02:46:04.893Z,98137.49
2018-12-17T02:48:35.755Z,98143.41
2018-12-17T02:51:06.634Z,98145.53
2018-12-17T02:53:38.411Z,98147.59
2018-12-17T02:56:09.248Z,98148.69
2018-12-17T02:58:43.940Z,98148.69
2018-12-17T03:01:13.194Z,98154.43
2018-12-17T03:03:44.289Z,98154.19
2018-12-17T03:06:15.159Z,98158.05
2018-12-17T03:08:46.102Z,98165.45
2018-12-17T03:11:17.043Z,98160.53
2018-12-17T03:13:47.902Z,98160.53
2018-12-17T03:16:18.756Z,98164.69
2018-12-17T03:18:49.674Z,98159.92
2018-12-17T03:21:20.574Z,98156.89
2018-12-17T03:23:52.568Z,98158.17
2018-12-17T03:26:23.513Z,98162.94
2018-12-17T03:28:54.351Z,98162.45
2018-12-17T03:31:25.262Z,98164.03
2018-12-17T03:33:56.196Z,98168.77
2018-12-17T03:36:27.122Z,98167.36
2018-12-17T03:38:57.977Z,98173.68
2018-12-17T03:41:28.914Z,98178.31
2018-12-17T03:43:59.861Z,98181.78
2018-12-17T03:46:31.346Z,98185.22
2018-12-17T03:49:02.525Z,98186.81
2018-12-17T03:51:33.566Z,98184.76
2018-12-17T03:54:05.449Z,98188.63
2018-12-17T03:56:36.269Z,98189.45
2018-12-17T03:59:07.123Z,98190.69
2018-12-17T04:01:38.034Z,98191.66
2018-12-17T04:04:08.996Z,98193.27
2018-12-17T04:06:39.925Z,98196.64
2018-12-17T04:09:10.878Z,98193.66
2018-12-17T04:11:41.722Z,98197.47
2018-12-17T04:14:12.981Z,98196.12
2018-12-17T04:16:43.794Z,98198.58
2018-12-17T04:19:14.740Z,98207.88
2018-12-17T04:21:45.814Z,98206.66
2018-12-17T04:24:17.431Z,98213.86
2018-12-17T04:26:49.977Z,98211.29
2018-12-17T04:29:20.842Z,98205.84
2018-12-17T04:31:51.700Z,98215.80
2018-12-17T04:34:22.817Z,98218.31
2018-12-17T04:36:54.342Z,98213.16
2018-12-17T04:39:25.213Z,98222.83
2018-12-17T04:41:56.124Z,98219.36
2018-12-17T04:44:27.076Z,98225.75
2018-12-17T04:46:57.966Z,98235.14
2018-12-17T04:49:29.590Z,98238.43
2018-12-17T04:52:00.433Z,98245.86
2018-12-17T04:54:31.722Z,98248.90
2018-12-17T04:57:02.670Z,98247.98
2018-12-17T04:59:34.460Z,98250.95
2018-12-17T05:02:05.590Z,98252.61
2018-12-17T05:04:37.755Z,98253.91
2018-12-17T05:07:08.590Z,98262.50
2018-12-17T05:09:39.440Z,98265.51
2018-12-17T05:12:10.294Z,98263.45
2018-12-17T05:14:42.337Z,98270.30
2018-12-17T05:17:15.726Z,98278.69
2018-12-17T05:19:46.655Z,98282.61
2018-12-17T05:22:17.585Z,98283.38
2018-12-17T05:24:48.547Z,98285.72
2018-12-17T05:27:19.467Z,98296.03
2018-12-17T05:29:50.394Z,98297.63
2018-12-17T05:32:21.285Z,98298.92
2018-12-17T05:34:52.133Z,98292.47
2018-12-17T05:37:22.989Z,98307.89
2018-12-17T05:39:53.941Z,98297.57
2018-12-17T05:42:24.890Z,98307.06
2018-12-17T05:44:55.751Z,98307.34
2018-12-17T05:47:26.682Z,98320.78
2018-12-17T05:49:57.533Z,98315.44
2018-12-17T05:52:28.546Z,98316.33
2018-12-17T05:54:59.468Z,98333.09
2018-12-17T05:57:30.369Z,98334.38
2018-12-17T06:00:01.337Z,98332.51
2018-12-17T06:02:33.434Z,98335.30
2018-12-17T06:05:05.488Z,98345.16
2018-12-17T06:07:36.742Z,98337.25
2018-12-17T06:10:08.572Z,98338.83
2018-12-17T06:12:39.460Z,98346.67
2018-12-17T06:15:11.198Z,98351.97
2018-12-17T06:17:42.335Z,98356.22
2018-12-17T06:20:13.207Z,98364.58
2018-12-17T06:22:44.409Z,98365.68
2018-12-17T06:25:15.352Z,98373.59
2018-12-17T06:27:46.910Z,98374.09
2018-12-17T06:30:17.762Z,98374.41
2018-12-17T06:32:49.010Z,98371.62
2018-12-17T06:35:19.844Z,98384.39
2018-12-17T06:37:50.772Z,98395.11
2018-12-17T06:40:21.739Z,98400.62
2018-12-17T06:42:52.742Z,98411.87
2018-12-17T06:45:23.308Z,98417.80
2018-12-17T06:47:54.212Z,98412.64
2018-12-17T06:50:25.117Z,98407.44
2018-12-17T06:52:55.998Z,98411.19
2018-12-17T06:55:26.859Z,98411.02
2018-12-17T06:57:59.386Z,98413.60
2018-12-17T07:00:30.837Z,98411.24
2018-12-17T07:03:02.083Z,98414.04
2018-12-17T07:05:32.989Z,98414.77
2018-12-17T07:08:03.881Z,98417.14
2018-12-17T07:10:34.761Z,98424.55
2018-12-17T07:13:05.618Z,98425.78
2018-12-17T07:15:36.664Z,98419.28
2018-12-17T07:18:07.590Z,98428.14
2018-12-17T07:20:39.269Z,98435.16
2018-12-17T07:23:10.198Z,98431.25
2018-12-17T07:25:41.447Z,98447.26
2018-12-17T07:28:12.285Z,98448.34
2018-12-17T07:30:43.934Z,98445.62
2018-12-17T07:33:15.373Z,98446.91
2018-12-17T07:35:46.824Z,98449.42
2018-12-17T07:38:17.754Z,98451.70
2018-12-17T07:40:49.342Z,98456.80
2018-12-17T07:43:20.238Z,98465.62
2018-12-17T07:45:53.558Z,98479.89
2018-12-17T07:48:24.469Z,98486.49
2018-12-17T07:50:55.440Z,98500.09
2018-12-17T07:53:26.769Z,98507.66
2018-12-17T07:55:57.818Z,98510.09
2018-12-17T07:58:28.673Z,98506.48
2018-12-17T08:01:00.329Z,98517.98
2018-12-17T08:03:32.121Z,98520.51
2018-12-17T08:06:03.632Z,98519.41
2018-12-17T08:08:35.580Z,98530.61
2018-12-17T08:11:07.046Z,98543.75
2018-12-17T08:13:37.954Z,98549.07
2018-12-17T08:16:08.898Z,98561.91
2018-12-17T08:18:39.823Z,98562.22
2018-12-17T08:21:11.296Z,98560.90
2018-12-17T08:23:42.205Z,98560.28
2018-12-17T08:26:13.174Z,98566.22
2018-12-17T08:28:44.025Z,98573.91
2018-12-17T08:31:14.987Z,98570.09
2018-12-17T08:33:45.965Z,98578.75
2018-12-17T08:36:16.889Z,98579.53
2018-12-17T08:38:47.861Z,98570.44
2018-12-17T08:41:18.709Z,98569.09
2018-12-17T08:43:49.622Z,98573.40
2018-12-17T08:46:20.559Z,98563.29
2018-12-17T08:48:51.498Z,98563.80
2018-12-17T08:51:22.353Z,98563.13
2018-12-17T08:53:53.269Z,98562.73
2018-12-17T08:56:24.214Z,98568.91
2018-12-17T08:58:55.164Z,98573.31
2018-12-17T09:01:26.339Z,98571.84
2018-12-17T09:03:58.458Z,98569.31
2018-12-17T09:06:29.331Z,98578.34
2018-12-17T09:09:00.177Z,98590.63
2018-12-17T09:11:31.033Z,98591.12
2018-12-17T09:14:01.870Z,98599.86
2018-12-17T09:16:32.729Z,98606.50
2018-12-17T09:19:03.778Z,98612.77
2018-12-17T09:21:34.627Z,98622.16
2018-12-17T09:24:05.538Z,98612.95
2018-12-17T09:26:37.308Z,98613.78
2018-12-17T09:29:08.545Z,98620.69
2018-12-17T09:31:39.486Z,98624.45
2018-12-17T09:34:10.426Z,98632.14
2018-12-17T09:36:41.290Z,98631.98
2018-12-17T09:39:14.498Z,98638.27
2018-12-17T09:41:47.870Z,98641.17
2018-12-17T09:44:19.829Z,98639.02
2018-12-17T09:46:55.918Z,98644.95
2018-12-17T09:49:29.107Z,98649.63
2018-12-17T09:51:59.959Z,98650.02
2018-12-17T09:54:31.354Z,98645.17
2018-12-17T09:57:02.300Z,98644.52
2018-12-17T09:59:33.229Z,98651.56
2018-12-17T10:02:04.162Z,98645.73
2018-12-17T10:04:35.214Z,98646.66
2018-12-17T10:07:05.798Z,98644.97
2018-12-17T10:09:36.683Z,98638.16
2018-12-17T10:12:07.595Z,98632.02
2018-12-17T10:14:38.562Z,98638.63
2018-12-17T10:17:09.482Z,98638.17
2018-12-17T10:19:40.421Z,98642.92
2018-12-17T10:22:11.340Z,98643.47
2018-12-17T10:24:42.619Z,98646.54
2018-12-17T10:27:13.473Z,98644.69
2018-12-17T10:29:44.406Z,98640.88
2018-12-17T10:32:14.955Z,98642.55
2018-12-17T10:34:45.638Z,98644.46
2018-12-17T10:37:16.452Z,98630.59
2018-12-17T10:39:47.121Z,98635.38
2018-12-17T10:42:17.818Z,98626.52
2018-12-17T10:44:48.655Z,98629.40
2018-12-17T10:47:19.469Z,98628.38
2018-12-17T10:49:50.947Z,98632.73
2018-12-17T10:52:21.606Z,98637.53
2018-12-17T10:54:52.654Z,98640.88
2018-12-17T10:57:23.809Z,98636.48
2018-12-17T10:59:54.714Z,98632.68
2018-12-17T11:05:20.552Z,98631.49
2018-12-17T11:07:51.499Z,98631.53
2018-12-17T11:10:22.506Z,98625.52
2018-12-17T11:12:53.665Z,98628.65
2018-12-17T11:15:24.282Z,98626.95
2018-12-17T11:17:55.574Z,98629.19
2018-12-17T11:20:27.298Z,98626.81
2018-12-17T11:22:57.930Z,98622.99
2018-12-17T11:25:28.577Z,98616.97
2018-12-17T11:27:59.174Z,98621.77
2018-12-17T11:30:30.025Z,98628.11
2018-12-17T11:33:01.333Z,98615.92
2018-12-17T11:35:32.051Z,98619.02
2018-12-17T11:38:02.746Z,98611.02
2018-12-17T11:40:33.586Z,98615.16
2018-12-17T11:43:04.206Z,98622.95
2018-12-17T11:45:35.596Z,98624.92
2018-12-17T11:48:06.230Z,98618.15
2018-12-17T11:50:37.034Z,98622.95
2018-12-17T11:53:07.602Z,98610.80
2018-12-17T11:55:38.202Z,98618.58
2018-12-17T11:58:14.045Z,98613.25
2018-12-17T12:00:53.869Z,98626.40
2018-12-17T12:03:25.458Z,98621.13
2018-12-17T12:05:56.061Z,98622.97
2018-12-17T12:08:26.785Z,98621.28
2018-12-17T12:10:57.962Z,98621.67
2018-12-17T12:13:28.547Z,98632.34
2018-12-17T12:15:59.157Z,98631.05
2018-12-17T12:18:29.709Z,98633.49
2018-12-17T12:21:00.311Z,98629.16
2018-12-17T12:23:30.882Z,98632.59
2018-12-17T12:26:01.835Z,98631.97
2018-12-17T12:28:32.561Z,98634.17
2018-12-17T12:31:03.198Z,98628.08
2018-12-17T12:33:33.753Z,98640.30
2018-12-17T12:36:04.607Z,98647.77
2018-12-17T12:38:35.191Z,98656.39
2018-12-17T12:41:06.145Z,98659.89
2018-12-17T12:43:36.712Z,98663.35
2018-12-17T12:46:07.397Z,98669.30
2018-12-17T12:48:38.356Z,98663.20
2018-12-17T12:51:09.046Z,98667.90
2018-12-17T12:53:39.710Z,98673.52
2018-12-17T12:56:10.878Z,98671.75
2018-12-17T12:58:41.450Z,98675.31
2018-12-17T13:01:12.107Z,98677.44
2018-12-17T13:03:42.660Z,98687.52
2018-12-17T13:06:13.230Z,98681.61
2018-12-17T13:08:44.812Z,98687.66
2018-12-17T13:11:15.442Z,98691.84
2018-12-17T13:13:46.139Z,98696.81
2018-12-17T13:16:16.774Z,98699.47
2018-12-17T13:18:47.429Z,98694.29
2018-12-17T13:21:18.246Z,98694.58
2018-12-17T13:23:48.830Z,98695.38
2018-12-17T13:26:19.443Z,98705.28
2018-12-17T13:28:50.032Z,98701.80
2018-12-17T13:31:20.617Z,98700.92
2018-12-17T13:33:51.226Z,98703.16
2018-12-17T13:36:21.819Z,98700.63
2018-12-17T13:38:52.471Z,98702.76
2018-12-17T13:41:23.081Z,98704.38
2018-12-17T13:43:53.691Z,98712.17
2018-12-17T13:46:25.178Z,98710.41
2018-12-17T13:48:56.093Z,98713.07
2018-12-17T13:51:31.858Z,98723.38
2018-12-17T13:54:04.899Z,98728.63
2018-12-17T13:56:35.747Z,98729.67
2018-12-17T13:59:06.451Z,98741.48
2018-12-17T14:01:37.496Z,98746.73
2018-12-17T14:04:08.121Z,98749.47
2018-12-17T14:06:38.680Z,98758.48
2018-12-17T14:09:10.110Z,98761.53
2018-12-17T14:11:40.710Z,98762.44
2018-12-17T14:14:11.862Z,98765.63
2018-12-17T14:16:47.599Z,98774.44
2018-12-17T14:22:19.475Z,98784.81
2018-12-17T14:24:50.140Z,98787.61
2018-12-17T14:27:20.718Z,98798.38
2018-12-17T14:29:51.377Z,98798.45
2018-12-17T14:32:21.998Z,98804.23
2018-12-17T14:34:52.664Z,98806.89
2018-12-17T14:37:23.981Z,98810.91
2018-12-17T14:39:54.614Z,98813.23
2018-12-17T14:42:25.250Z,98822.38
2018-12-17T14:44:55.794Z,98825.83
2018-12-17T14:47:26.414Z,98825.83
2018-12-17T14:49:57.024Z,98832.25
2018-12-17T14:52:28.192Z,98840.98
2018-12-17T14:54:58.800Z,98839.75
2018-12-17T14:57:29.758Z,98851.23
2018-12-17T15:00:00.361Z,98862.62
2018-12-17T15:02:30.934Z,98866.02
2018-12-17T15:05:01.523Z,98872.56
2018-12-17T15:07:32.627Z,98873.45
2018-12-17T15:10:03.724Z,98880.06
2018-12-17T15:12:35.585Z,98881.21
2018-12-17T15:15:09.630Z,98895.53
2018-12-17T15:17:40.330Z,98897.25
2018-12-17T15:20:12.395Z,98902.38
2018-12-17T15:22:43.766Z,98912.34
2018-12-17T15:25:14.496Z,98912.68
2018-12-17T15:27:45.474Z,98921.69
2018-12-17T15:30:16.326Z,98923.36
2018-12-17T15:32:47.385Z,98927.70
2018-12-17T15:35:18.022Z,98934.53
2018-12-17T15:37:48.660Z,98931.53
2018-12-17T15:40:19.246Z,98930.36
2018-12-17T15:42:49.879Z,98934.42
2018-12-17T15:45:20.450Z,98936.83
2018-12-17T15:47:51.078Z,98940.42
2018-12-17T15:50:21.687Z,98944.48
2018-12-17T15:52:52.633Z,98944.78
2018-12-17T15:55:24.029Z,98943.43
2018-12-17T15:57:54.601Z,98946.02
2018-12-17T16:00:25.677Z,98945.91
2018-12-17T16:02:56.392Z,98950.08
2018-12-17T16:05:27.944Z,98945.61
2018-12-17T16:07:58.662Z,98952.86
2018-12-17T16:10:29.387Z,98945.48
2018-12-17T16:13:00.029Z,98945.03
2018-12-17T16:15:31.118Z,98948.55
2018-12-17T16:18:01.829Z,98947.19
2018-12-17T16:20:32.433Z,98957.80
2018-12-17T16:23:03.023Z,98951.73
2018-12-17T16:25:33.685Z,98951.21
2018-12-17T16:28:04.755Z,98944.42
2018-12-17T16:30:36.070Z,98947.44
2018-12-17T16:33:07.202Z,98949.26
2018-12-17T16:35:39.775Z,98944.08
2018-12-17T16:38:11.797Z,98948.08
2018-12-17T16:40:46.630Z,98962.51
2018-12-17T16:43:18.718Z,98956.20
2018-12-17T16:45:50.145Z,98966.91
2018-12-17T16:48:21.279Z,98972.04
2018-12-17T16:50:51.985Z,98971.69
2018-12-17T16:53:25.695Z,98974.80
2018-12-17T16:55:57.529Z,98978.58
2018-12-17T16:58:28.805Z,98988.36
2018-12-17T17:00:59.962Z,98991.61
2018-12-17T17:03:32.462Z,99000.04
2018-12-17T17:06:03.726Z,98994.37
2018-12-17T17:08:38.355Z,98996.84
2018-12-17T17:11:09.617Z,98993.27
2018-12-17T17:13:40.286Z,98998.02
2018-12-17T17:16:12.777Z,98992.78
2018-12-17T17:18:44.214Z,98999.98
2018-12-17T17:21:15.807Z,99002.16
2018-12-17T17:23:47.654Z,99008.56
2018-12-17T17:26:19.786Z,99008.68
2018-12-17T17:28:54.453Z,99018.59
2018-12-17T17:31:26.755Z,99016.34
2018-12-17T17:34:00.043Z,99019.77
2018-12-17T17:36:33.512Z,99020.72
2018-12-17T17:39:07.992Z,99032.72
2018-12-17T17:41:43.541Z,99034.13
2018-12-17T17:44:14.762Z,99037.25
2018-12-17T17:46:46.134Z,99044.96
2018-12-17T17:49:17.534Z,99038.02
2018-12-17T17:51:50.137Z,99043.61
2018-12-17T17:54:23.365Z,99045.33
2018-12-17T17:56:54.786Z,99045.80
2018-12-17T17:59:26.457Z,99051.20
2018-12-17T18:01:59.213Z,99054.02
2018-12-17T18:04:32.974Z,99059.78
2018-12-17T18:07:05.609Z,99053.12
2018-12-17T18:09:38.146Z,99054.47
2018-12-17T18:12:09.435Z,99069.53
2018-12-17T18:14:46.625Z,99074.77
2018-12-17T18:17:19.264Z,99073.25
2018-12-17T18:19:52.785Z,99075.21
2018-12-17T18:22:24.797Z,99077.98
2018-12-17T18:24:56.089Z,99087.89
2018-12-17T18:27:29.718Z,99087.11
2018-12-17T18:30:01.150Z,99087.94
2018-12-17T18:32:34.310Z,99089.59
2018-12-17T18:35:06.609Z,99095.14
2018-12-17T18:37:38.925Z,99093.02
2018-12-17T18:40:10.619Z,99096.06
2018-12-17T18:42:43.144Z,99105.45
2018-12-17T18:45:14.238Z,99107.05
2018-12-17T18:47:47.473Z,99106.88
2018-12-17T18:50:18.111Z,99107.14
2018-12-17T18:52:49.815Z,99116.04
2018-12-17T18:55:21.525Z,99117.63
2018-12-17T18:57:54.101Z,99118.87
2018-12-17T19:00:24.745Z,99120.62
2018-12-17T19:02:55.521Z,99122.58
2018-12-17T19:05:27.526Z,99126.31
2018-12-17T19:07:59.973Z,99136.03
2018-12-17T19:10:39.057Z,99138.25
2018-12-17T19:13:09.814Z,99138.25
2018-12-17T19:15:40.535Z,99150.75
2018-12-17T19:18:11.289Z,99145.89
2018-12-17T19:20:42.017Z,99155.48
2018-12-17T19:23:12.670Z,99154.95
2018-12-17T19:25:43.374Z,99163.25
2018-12-17T19:28:14.546Z,99168.84
2018-12-17T19:30:45.150Z,99165.59
2018-12-17T19:33:16.107Z,99165.95
2018-12-17T19:35:46.729Z,99162.63
2018-12-17T19:38:18.793Z,99163.87
2018-12-17T19:40:49.510Z,99164.30
2018-12-17T19:43:20.748Z,99163.46
2018-12-17T19:45:51.363Z,99167.30
2018-12-17T19:48:22.212Z,99169.42
2018-12-17T19:50:52.873Z,99168.95
2018-12-17T19:53:23.720Z,99167.30
2018-12-17T19:55:55.333Z,99169.64
2018-12-17T19:58:26.099Z,99177.71
2018-12-17T20:00:57.010Z,99179.06
2018-12-17T20:03:27.817Z,99171.64
2018-12-17T20:05:59.097Z,99179.31
2018-12-17T20:08:29.734Z,99176.20
2018-12-17T20:11:00.477Z,99171.80
2018-12-17T20:13:31.115Z,99173.86
2018-12-17T20:16:01.814Z,99174.75
2018-12-17T20:18:33.914Z,99178.13
2018-12-17T20:21:04.980Z,99181.44
2018-12-17T20:23:35.665Z,99184.44
2018-12-17T20:26:06.485Z,99184.55
2018-12-17T20:28:37.255Z,99194.80
2018-12-17T20:31:07.865Z,99187.55
2018-12-17T20:33:38.470Z,99189.67
2018-12-17T20:36:09.613Z,99194.39
2018-12-17T20:38:40.576Z,99196.88
2018-12-17T20:41:11.229Z,99193.40
2018-12-17T20:43:41.854Z,99198.06
2018-12-17T20:46:13.626Z,99200.66
2018-12-17T20:48:44.539Z,99198.42
2018-12-17T20:51:15.149Z,99210.92
2018-12-17T20:53:45.762Z,99215.27
2018-12-17T20:56:16.460Z,99221.34
2018-12-17T20:58:48.231Z,99224.61
2018-12-17T21:01:18.907Z,99228.66
2018-12-17T21:03:49.654Z,99226.11
2018-12-17T21:06:20.395Z,99223.63
2018-12-17T21:08:51.078Z,99236.58
2018-12-17T21:11:21.745Z,99228.80
2018-12-17T21:13:52.333Z,99230.52
2018-12-17T21:16:23.111Z,99236.53
2018-12-17T21:18:53.739Z,99233.52
2018-12-17T21:21:24.487Z,99230.00
2018-12-17T21:23:55.210Z,99240.26
2018-12-17T21:26:25.829Z,99236.78
2018-12-17T21:28:56.491Z,99230.20
2018-12-17T21:31:27.422Z,99242.17
2018-12-17T21:33:58.139Z,99236.63
2018-12-17T21:36:29.078Z,99240.47
2018-12-17T21:39:00.600Z,99238.69
2018-12-17T21:41:31.370Z,99235.59
2018-12-17T21:44:02.090Z,99238.08
2018-12-17T21:46:34.016Z,99234.56
2018-12-17T21:49:05.499Z,99238.91
2018-12-17T21:51:36.125Z,99248.44
2018-12-17T21:54:06.783Z,99253.27
2018-12-17T21:56:37.382Z,99250.62
2018-12-17T21:59:08.351Z,99249.84
2018-12-17T22:01:39.292Z,99251.55
2018-12-17T22:04:10.843Z,99251.41
2018-12-17T22:06:41.598Z,99252.22
2018-12-17T22:09:12.385Z,99255.30
2018-12-17T22:11:43.011Z,99261.30
2018-12-17T22:14:13.642Z,99263.07
2018-12-17T22:16:44.277Z,99266.17
2018-12-17T22:19:14.986Z,99271.30
2018-12-17T22:21:45.636Z,99262.59
2018-12-17T22:24:16.678Z,99260.78
2018-12-17T22:26:47.398Z,99256.06
2018-12-17T22:29:18.080Z,99258.66
2018-12-17T22:31:49.197Z,99262.19
2018-12-17T22:34:19.818Z,99257.00
2018-12-17T22:36:50.634Z,99262.97
2018-12-17T22:39:22.316Z,99258.09
2018-12-17T22:41:52.935Z,99260.98
2018-12-17T22:44:23.874Z,99263.01
2018-12-17T22:46:54.910Z,99259.84
2018-12-17T22:49:25.754Z,99261.05
2018-12-17T22:51:56.373Z,99260.20
2018-12-17T22:54:27.014Z,99262.80
2018-12-17T22:56:57.639Z,99262.23
2018-12-17T22:59:28.277Z,99261.86
2018-12-17T23:01:59.277Z,99265.95
2018-12-17T23:04:29.941Z,99260.88
2018-12-17T23:07:00.565Z,99253.63
2018-12-17T23:09:48.004Z,99259.90
2018-12-17T23:12:35.523Z,99257.41
2018-12-17T23:15:23.050Z,99262.06
2018-12-17T23:17:52.126Z,99259.95
2018-12-17T23:20:25.229Z,99262.55
2018-12-17T23:22:58.329Z,99263.84
2018-12-17T23:25:30.703Z,99259.12
2018-12-17T23:28:01.321Z,99250.94
2018-12-17T23:30:32.420Z,99247.97
2018-12-17T23:33:03.521Z,99249.74
2018-12-17T23:35:34.157Z,99243.88
2018-12-17T23:38:05.079Z,99245.73
2018-12-17T23:40:35.824Z,99250.87
2018-12-17T23:43:06.744Z,99247.72
2018-12-17T23:45:37.385Z,99243.83
2018-12-17T23:48:08.642Z,99248.50
2018-12-17T23:50:39.265Z,99246.73
2018-12-17T23:53:10.309Z,99247.05
2018-12-17T23:55:41.013Z,99240.57
2018-12-17T23:58:11.846Z,99245.59
